createdAt,value
2019-05-13T00:04:18.901Z,3.72
2019-05-13T00:09:40.829Z,3.42
2019-05-13T00:15:03.761Z,3.62
2019-05-13T00:20:25.260Z,3.27
2019-05-13T00:25:47.231Z,3.22
2019-05-13T00:31:08.901Z,3.47
2019-05-13T00:36:30.871Z,3.58
2019-05-13T00:41:53.182Z,3.47
2019-05-13T00:47:14.715Z,3.30
2019-05-13T00:52:36.636Z,3.67
2019-05-13T00:57:58.170Z,3.22
2019-05-13T01:03:19.913Z,3.55
2019-05-13T01:08:48.625Z,3.58
2019-05-13T01:14:10.478Z,3.72
2019-05-13T01:19:34.126Z,3.60
2019-05-13T01:24:55.728Z,3.17
2019-05-13T01:30:18.390Z,3.50
2019-05-13T01:35:40.207Z,3.90
2019-05-13T01:41:04.335Z,3.27
2019-05-13T01:46:25.657Z,3.05
2019-05-13T01:51:47.057Z,3.37
2019-05-13T01:57:08.930Z,3.80
2019-05-13T02:02:30.572Z,3.77
2019-05-13T02:07:59.623Z,3.67
2019-05-13T02:13:15.710Z,3.85
2019-05-13T02:18:37.162Z,3.37
2019-05-13T02:23:58.713Z,4.15
2019-05-13T02:29:20.522Z,4.20
2019-05-13T02:34:43.744Z,3.60
2019-05-13T02:40:06.154Z,4.05
2019-05-13T02:45:28.219Z,3.90
2019-05-13T02:50:52.888Z,3.75
2019-05-13T02:56:14.130Z,4.35
2019-05-13T03:01:35.477Z,4.35
2019-05-13T03:06:57.524Z,4.33
2019-05-13T03:12:19.022Z,4.83
2019-05-13T03:18:03.186Z,4.40
2019-05-13T03:23:25.278Z,4.83
2019-05-13T03:28:47.067Z,4.60
2019-05-13T03:34:14.917Z,4.20
2019-05-13T03:39:34.247Z,3.92
2019-05-13T03:44:57.627Z,3.62
2019-05-13T03:50:22.324Z,3.87
2019-05-13T03:55:43.783Z,3.42
2019-05-13T04:01:06.043Z,3.40
2019-05-13T04:06:27.611Z,4.15
2019-05-13T04:11:52.497Z,3.72
2019-05-13T04:17:13.728Z,3.83
2019-05-13T04:22:36.069Z,4.30
2019-05-13T04:27:58.087Z,3.75
2019-05-13T04:33:22.615Z,3.92
2019-05-13T04:38:44.679Z,3.90
2019-05-13T04:44:06.772Z,4.30
2019-05-13T04:49:28.581Z,3.60
2019-05-13T04:54:52.788Z,3.80
2019-05-13T05:00:13.974Z,4.28
2019-05-13T05:06:07.303Z,4.40
2019-05-13T05:12:04.697Z,3.80
2019-05-13T05:18:11.678Z,4.42
2019-05-13T05:23:59.247Z,5.50
2019-05-13T05:29:42.224Z,6.58
2019-05-13T05:35:17.344Z,8.33
2019-05-13T05:57:26.510Z,10.10
2019-05-13T06:02:52.968Z,10.65
2019-05-13T06:08:13.688Z,8.83
2019-05-13T06:13:37.891Z,9.20
2019-05-13T06:19:01.457Z,8.65
2019-05-13T06:24:26.651Z,9.13
2019-05-13T06:29:49.300Z,8.05
2019-05-13T06:35:11.642Z,8.93
2019-05-13T06:40:33.787Z,9.40
2019-05-13T06:45:55.773Z,8.75
2019-05-13T06:51:17.588Z,9.45
2019-05-13T06:56:39.302Z,10.38
2019-05-13T07:02:02.113Z,9.48
2019-05-13T07:07:24.551Z,8.75
2019-05-13T07:12:46.072Z,9.25
2019-05-13T07:18:07.780Z,8.83
2019-05-13T07:23:31.891Z,9.33
2019-05-13T07:28:53.468Z,8.58
2019-05-13T07:34:15.583Z,7.30
2019-05-13T07:39:37.829Z,7.47
2019-05-13T07:45:01.442Z,6.80
2019-05-13T07:50:23.265Z,5.92
2019-05-13T07:55:45.188Z,7.35
2019-05-13T08:01:07.239Z,6.03
2019-05-13T08:06:32.140Z,5.60
2019-05-13T08:12:14.410Z,5.95
2019-05-13T08:17:35.088Z,5.78
2019-05-13T08:22:56.998Z,5.45
2019-05-13T08:28:22.396Z,5.78
2019-05-13T08:33:44.384Z,5.50
2019-05-13T08:39:07.899Z,5.15
2019-05-13T08:44:32.023Z,5.40
2019-05-13T08:49:56.623Z,5.40
2019-05-13T08:55:18.259Z,4.53
2019-05-13T09:00:52.953Z,4.58
2019-05-13T09:06:14.506Z,4.58
2019-05-13T09:11:36.471Z,4.30
2019-05-13T09:16:58.535Z,4.20
2019-05-13T09:22:21.337Z,4.75
2019-05-13T09:27:43.115Z,4.60
2019-05-13T09:33:04.850Z,5.10
2019-05-13T09:38:26.576Z,4.85
2019-05-13T09:43:48.008Z,4.50
2019-05-13T09:49:15.740Z,4.90
2019-05-13T09:54:33.437Z,4.87
2019-05-13T09:59:55.160Z,5.25
2019-05-13T10:05:16.581Z,5.03
2019-05-13T10:10:38.608Z,4.80
2019-05-13T10:16:00.203Z,5.15
2019-05-13T10:21:22.068Z,4.65
2019-05-13T10:26:44.145Z,4.50
2019-05-13T10:32:06.692Z,4.22
2019-05-13T10:37:28.440Z,4.30
2019-05-13T10:42:52.225Z,5.08
2019-05-13T10:48:13.609Z,4.80
2019-05-13T10:53:35.567Z,4.62
2019-05-13T10:58:57.382Z,4.65
2019-05-13T11:04:18.626Z,5.10
2019-05-13T11:09:41.850Z,4.70
2019-05-13T11:15:04.413Z,5.20
2019-05-13T11:20:26.400Z,4.65
2019-05-13T11:25:48.295Z,4.70
2019-05-13T11:31:09.919Z,5.12
2019-05-13T11:36:33.364Z,4.25
2019-05-13T11:41:55.007Z,4.95
2019-05-13T11:47:16.903Z,5.22
2019-05-13T11:52:38.743Z,4.80
2019-05-13T11:58:02.981Z,4.78
2019-05-13T12:03:23.806Z,4.72
2019-05-13T12:08:51.003Z,5.00
2019-05-13T12:14:34.755Z,5.03
2019-05-13T12:19:32.700Z,5.05
2019-05-13T12:24:53.932Z,5.90
2019-05-13T12:30:16.279Z,5.78
2019-05-13T12:35:38.437Z,6.40
2019-05-13T12:41:03.855Z,6.28
2019-05-13T12:46:24.644Z,6.28
2019-05-13T12:51:46.917Z,6.22
2019-05-13T12:57:13.081Z,6.75
2019-05-13T13:02:32.736Z,6.40
2019-05-13T13:08:16.085Z,6.45
2019-05-13T13:13:18.324Z,6.83
2019-05-13T13:39:43.191Z,7.17
2019-05-13T13:45:06.399Z,6.70
2019-05-13T13:50:28.544Z,6.72
2019-05-13T13:55:55.514Z,6.58
2019-05-13T14:01:19.886Z,6.78
2019-05-13T14:12:02.009Z,6.65
2019-05-13T14:17:23.752Z,7.65
2019-05-13T14:22:45.423Z,7.35
2019-05-13T14:28:07.078Z,8.20
2019-05-13T14:33:32.504Z,7.83
2019-05-13T14:38:53.034Z,7.83
2019-05-13T14:44:14.705Z,7.80
2019-05-13T14:49:36.502Z,7.53
2019-05-13T14:54:57.937Z,7.33
2019-05-13T15:00:22.103Z,7.35
2019-05-13T15:05:43.400Z,7.83
2019-05-13T15:11:04.844Z,7.65
2019-05-13T15:16:26.930Z,8.55
2019-05-13T15:21:48.635Z,7.78
2019-05-13T15:27:10.245Z,7.62
2019-05-13T15:32:32.721Z,8.40
2019-05-13T15:37:54.072Z,9.28
2019-05-13T15:43:15.563Z,9.78
2019-05-13T15:48:37.425Z,10.70
2019-05-13T15:54:02.225Z,9.53
2019-05-13T15:59:22.948Z,10.30
2019-05-13T16:04:52.640Z,10.28
2019-05-13T16:10:11.116Z,9.40
2019-05-13T16:15:32.494Z,9.58
2019-05-13T16:20:54.213Z,9.48
2019-05-13T16:26:15.882Z,9.55
2019-05-13T16:31:37.758Z,10.25
2019-05-13T16:37:01.608Z,10.38
2019-05-13T16:42:23.423Z,11.25
2019-05-13T16:47:56.561Z,11.30
2019-05-13T16:53:08.608Z,11.70
2019-05-13T16:58:32.501Z,12.20
2019-05-13T17:03:54.002Z,13.95
2019-05-13T17:09:16.000Z,12.30
2019-05-13T17:14:37.489Z,12.58
2019-05-13T17:19:59.465Z,15.72
2019-05-13T17:25:20.705Z,17.35
2019-05-13T17:30:42.678Z,20.88
2019-05-13T17:36:04.329Z,14.50
2019-05-13T17:41:26.444Z,16.90
2019-05-13T17:46:47.988Z,14.50
2019-05-13T17:52:11.357Z,15.58
2019-05-13T17:57:33.209Z,14.85
2019-05-13T18:02:54.990Z,16.20
2019-05-13T18:08:16.565Z,17.17
2019-05-13T18:13:42.986Z,19.05
2019-05-13T18:19:02.258Z,16.23
2019-05-13T18:24:23.951Z,17.75
2019-05-13T18:29:45.844Z,16.93
2019-05-13T18:35:07.797Z,17.35
2019-05-13T18:40:31.344Z,16.85
2019-05-13T18:45:52.926Z,16.30
2019-05-13T18:51:14.667Z,17.25
2019-05-13T18:56:36.089Z,16.23
2019-05-13T19:01:57.688Z,15.65
2019-05-13T19:07:21.375Z,16.57
2019-05-13T19:12:42.960Z,17.20
2019-05-13T19:18:05.116Z,15.55
2019-05-13T19:23:26.557Z,15.15
2019-05-13T19:28:48.555Z,15.30
2019-05-13T19:34:12.592Z,16.05
2019-05-13T19:39:34.612Z,14.83
2019-05-13T19:44:56.352Z,15.28
2019-05-13T19:50:18.372Z,18.92
2019-05-13T19:55:41.442Z,17.95
2019-05-13T20:01:03.710Z,16.67
2019-05-13T20:06:25.236Z,15.28
2019-05-13T20:11:46.984Z,14.38
2019-05-13T20:17:09.147Z,14.13
2019-05-13T20:22:31.431Z,13.72
2019-05-13T20:27:53.087Z,12.65
2019-05-13T20:33:14.446Z,13.78
2019-05-13T20:38:35.885Z,14.05
2019-05-13T20:43:57.663Z,15.13
2019-05-13T20:49:21.717Z,16.60
2019-05-13T20:54:43.275Z,16.45
2019-05-13T21:00:05.118Z,16.80
2019-05-13T21:05:26.981Z,17.00
2019-05-13T21:10:48.612Z,16.65
2019-05-13T21:16:11.417Z,15.32
2019-05-13T21:21:33.645Z,18.17
2019-05-13T21:26:55.690Z,16.90
2019-05-13T21:32:17.819Z,23.45
2019-05-13T21:37:39.589Z,18.87
2019-05-13T21:43:01.457Z,17.98
2019-05-13T21:48:22.631Z,15.08
2019-05-13T21:53:44.703Z,14.70
2019-05-13T21:59:06.452Z,13.98
2019-05-13T22:04:28.221Z,13.53
2019-05-13T22:09:51.345Z,8.53
2019-05-13T22:15:13.226Z,8.58
2019-05-13T22:20:47.342Z,6.58
2019-05-13T22:26:01.373Z,6.55
2019-05-13T22:31:22.351Z,4.95
2019-05-13T22:36:43.990Z,6.90
2019-05-13T22:42:05.461Z,7.92
2019-05-13T22:47:27.390Z,8.85
2019-05-13T22:52:48.614Z,6.08
2019-05-13T22:58:10.339Z,5.55
2019-05-13T23:03:32.456Z,4.90
2019-05-13T23:08:53.667Z,5.40
2019-05-13T23:14:15.077Z,5.17
2019-05-13T23:19:36.917Z,5.40
2019-05-13T23:24:58.716Z,5.25
2019-05-13T23:30:20.545Z,5.25
2019-05-13T23:35:42.040Z,5.72
2019-05-13T23:41:03.880Z,7.15
2019-05-13T23:46:25.305Z,7.70
2019-05-13T23:51:47.147Z,8.00
2019-05-13T23:57:08.624Z,9.60
